createdAt,value
2023-05-11T00:00:09.999Z,2.53
2023-05-11T00:02:37.542Z,2.43
2023-05-11T00:05:05.353Z,1.80
2023-05-11T00:07:32.808Z,2.60
2023-05-11T00:10:00.411Z,2.20
2023-05-11T00:12:27.818Z,2.63
2023-05-11T00:14:55.272Z,2.30
2023-05-11T00:17:22.759Z,2.70
2023-05-11T00:19:50.085Z,2.40
2023-05-11T00:22:17.460Z,1.93
2023-05-11T00:24:44.800Z,2.70
2023-05-11T00:27:12.195Z,2.40
2023-05-11T00:29:39.609Z,2.47
2023-05-11T00:32:06.971Z,2.20
2023-05-11T00:34:34.389Z,2.93
2023-05-11T00:37:01.786Z,2.67
2023-05-11T00:39:29.224Z,2.30
2023-05-11T00:41:56.609Z,2.03
2023-05-11T00:44:24.006Z,2.30
2023-05-11T00:46:51.514Z,2.00
2023-05-11T00:49:20.608Z,2.60
2023-05-11T00:51:47.988Z,2.40
2023-05-11T00:54:15.700Z,2.27
2023-05-11T00:56:43.044Z,2.50
2023-05-11T00:59:10.435Z,2.10
2023-05-11T01:01:40.494Z,2.30
2023-05-11T01:04:08.306Z,2.33
2023-05-11T01:06:44.539Z,2.47
2023-05-11T01:09:16.502Z,2.60
2023-05-11T01:11:45.815Z,2.13
2023-05-11T01:14:15.119Z,2.40
2023-05-11T01:16:44.091Z,2.77
2023-05-11T01:19:21.937Z,2.00
2023-05-11T01:21:51.289Z,2.73
2023-05-11T01:24:22.926Z,2.07
2023-05-11T01:27:08.721Z,2.27
2023-05-11T01:29:43.402Z,2.30
2023-05-11T01:32:12.392Z,2.10
2023-05-11T01:34:40.292Z,2.10
2023-05-11T01:37:11.909Z,2.20
2023-05-11T01:39:40.903Z,2.30
2023-05-11T01:42:09.810Z,2.63
2023-05-11T01:44:40.341Z,2.13
2023-05-11T01:47:08.624Z,1.90
2023-05-11T01:49:38.847Z,2.53
2023-05-11T01:52:07.930Z,1.70
2023-05-11T01:54:36.494Z,1.93
2023-05-11T01:57:04.244Z,2.53
2023-05-11T01:59:32.489Z,2.57
2023-05-11T02:02:00.922Z,2.47
2023-05-11T02:04:29.548Z,2.20
2023-05-11T02:06:57.614Z,2.70
2023-05-11T02:09:25.526Z,2.50
2023-05-11T02:11:54.182Z,2.50
2023-05-11T02:14:21.969Z,2.63
2023-05-11T02:16:50.645Z,2.57
2023-05-11T02:19:18.527Z,2.40
2023-05-11T02:21:46.887Z,2.63
2023-05-11T02:24:15.354Z,2.83
2023-05-11T02:26:43.058Z,2.53
2023-05-11T02:29:10.384Z,2.30
2023-05-11T02:31:39.407Z,2.43
2023-05-11T02:34:15.760Z,2.80
2023-05-11T02:36:43.933Z,2.70
2023-05-11T02:39:12.920Z,2.27
2023-05-11T02:41:41.816Z,2.80
2023-05-11T02:44:10.497Z,3.00
2023-05-11T02:46:38.993Z,2.97
2023-05-11T02:49:08.593Z,3.07
2023-05-11T02:51:37.695Z,2.90
2023-05-11T02:54:06.984Z,2.43
2023-05-11T02:56:34.397Z,2.30
2023-05-11T02:59:02.156Z,3.17
2023-05-11T03:01:30.594Z,2.67
2023-05-11T03:03:58.483Z,3.10
2023-05-11T03:06:26.081Z,3.13
2023-05-11T03:08:53.480Z,3.07
2023-05-11T03:11:22.024Z,2.53
2023-05-11T03:13:50.162Z,2.50
2023-05-11T03:16:20.940Z,2.90
2023-05-11T03:18:48.507Z,2.50
2023-05-11T03:21:16.638Z,3.10
2023-05-11T03:23:45.772Z,2.80
2023-05-11T03:26:13.558Z,3.90
2023-05-11T03:28:41.945Z,3.43
2023-05-11T03:31:09.410Z,3.60
2023-05-11T03:33:36.809Z,3.70
2023-05-11T03:36:05.471Z,4.43
2023-05-11T03:38:32.865Z,3.60
2023-05-11T03:41:01.327Z,3.07
2023-05-11T03:43:30.977Z,3.27
2023-05-11T03:45:58.605Z,4.40
2023-05-11T03:48:26.095Z,4.37
2023-05-11T03:50:53.679Z,4.33
2023-05-11T03:53:21.249Z,5.40
2023-05-11T03:55:49.847Z,4.43
2023-05-11T03:58:17.319Z,4.73
2023-05-11T04:00:45.161Z,5.03
2023-05-11T04:03:12.634Z,4.77
2023-05-11T04:05:41.220Z,4.40
2023-05-11T04:08:08.786Z,4.40
2023-05-11T04:10:36.177Z,5.13
2023-05-11T04:13:03.845Z,4.83
2023-05-11T04:15:31.315Z,5.60
2023-05-11T04:17:58.817Z,7.10
2023-05-11T04:20:26.481Z,5.30
2023-05-11T04:22:54.460Z,5.73
2023-05-11T04:25:21.856Z,7.77
2023-05-11T04:27:49.232Z,9.30
2023-05-11T04:30:17.096Z,9.30
2023-05-11T04:32:44.751Z,9.80
2023-05-11T04:35:12.213Z,8.30
2023-05-11T04:37:39.668Z,9.23
2023-05-11T04:40:07.559Z,7.53
2023-05-11T04:42:34.962Z,7.60
2023-05-11T04:45:02.329Z,9.33
2023-05-11T04:47:29.849Z,8.60
2023-05-11T04:49:57.213Z,8.73
2023-05-11T04:52:24.549Z,8.50
2023-05-11T04:54:52.854Z,8.30
2023-05-11T04:57:20.248Z,8.10
2023-05-11T04:59:47.783Z,7.70
2023-05-11T05:02:15.173Z,8.27
2023-05-11T05:04:53.095Z,9.33
2023-05-11T05:07:20.471Z,9.53
2023-05-11T05:09:47.889Z,10.40
2023-05-11T05:12:15.494Z,9.20
2023-05-11T05:14:42.837Z,10.77
2023-05-11T05:17:10.340Z,10.67
2023-05-11T05:19:37.797Z,10.17
2023-05-11T05:22:05.392Z,9.20
2023-05-11T05:24:32.834Z,9.07
2023-05-11T05:27:00.237Z,11.10
2023-05-11T05:29:27.650Z,10.80
2023-05-11T05:31:55.123Z,10.17
2023-05-11T05:34:22.446Z,9.03
2023-05-11T05:36:49.855Z,8.60
2023-05-11T05:39:17.271Z,9.20
2023-05-11T05:41:44.684Z,8.50
2023-05-11T05:44:12.098Z,7.90
2023-05-11T05:46:39.551Z,7.10
2023-05-11T05:49:06.967Z,8.40
2023-05-11T05:51:34.422Z,8.03
2023-05-11T05:54:01.818Z,7.23
2023-05-11T05:56:29.225Z,6.93
2023-05-11T05:58:56.779Z,7.67
2023-05-11T06:01:24.190Z,7.50
2023-05-11T06:03:52.052Z,6.83
2023-05-11T06:06:19.641Z,6.97
2023-05-11T06:08:47.047Z,6.00
2023-05-11T06:11:15.517Z,6.20
2023-05-11T06:13:42.918Z,6.67
2023-05-11T06:16:10.515Z,6.67
2023-05-11T06:18:37.959Z,6.30
2023-05-11T06:21:05.339Z,6.40
2023-05-11T06:23:32.747Z,8.10
2023-05-11T06:26:00.331Z,6.17
2023-05-11T06:28:27.669Z,6.67
2023-05-11T06:30:58.480Z,7.77
2023-05-11T06:33:26.171Z,7.10
2023-05-11T06:35:54.502Z,7.07
2023-05-11T06:38:21.909Z,7.37
2023-05-11T06:40:50.827Z,6.90
2023-05-11T06:43:18.246Z,7.20
2023-05-11T06:45:45.876Z,7.30
2023-05-11T06:48:13.607Z,6.83
2023-05-11T06:50:40.980Z,6.07
2023-05-11T06:53:10.033Z,7.20
2023-05-11T06:55:37.787Z,6.50
2023-05-11T06:58:05.206Z,6.00
2023-05-11T07:00:32.585Z,6.13
2023-05-11T07:03:00.040Z,6.30
2023-05-11T07:05:27.855Z,6.20
2023-05-11T07:07:55.269Z,6.10
2023-05-11T07:10:22.705Z,6.37
2023-05-11T07:12:50.316Z,6.80
2023-05-11T07:15:17.771Z,6.70
2023-05-11T07:17:46.844Z,6.80
2023-05-11T07:20:14.207Z,6.10
2023-05-11T07:22:41.612Z,7.07
2023-05-11T07:25:11.690Z,7.60
2023-05-11T07:27:39.102Z,6.40
2023-05-11T07:30:06.936Z,7.70
2023-05-11T07:32:34.546Z,8.10
2023-05-11T07:35:01.920Z,7.17
2023-05-11T07:37:29.315Z,7.10
2023-05-11T07:39:56.690Z,8.43
2023-05-11T07:42:24.130Z,8.10
2023-05-11T07:44:52.372Z,7.20
2023-05-11T07:47:20.824Z,7.80
2023-05-11T07:49:48.400Z,8.77
2023-05-11T07:52:15.989Z,9.40
2023-05-11T07:54:43.372Z,8.97
2023-05-11T07:57:12.661Z,9.30
2023-05-11T07:59:42.204Z,8.57
2023-05-11T08:02:11.583Z,10.70
2023-05-11T08:04:39.240Z,8.27
2023-05-11T08:07:06.803Z,9.00
2023-05-11T08:09:34.294Z,8.37
2023-05-11T08:12:02.045Z,8.00
2023-05-11T08:14:29.447Z,8.37
2023-05-11T08:16:56.866Z,8.07
2023-05-11T08:19:24.266Z,8.47
2023-05-11T08:21:51.692Z,7.17
2023-05-11T08:24:19.072Z,7.43
2023-05-11T08:26:47.058Z,8.73
2023-05-11T08:29:14.462Z,7.73
2023-05-11T08:31:41.885Z,6.33
2023-05-11T08:34:18.699Z,5.97
2023-05-11T08:36:38.436Z,6.00
2023-05-11T08:39:06.141Z,6.27
2023-05-11T08:41:33.564Z,6.20
2023-05-11T08:44:01.287Z,6.50
2023-05-11T08:46:29.964Z,6.73
2023-05-11T08:48:58.445Z,7.70
2023-05-11T08:51:28.090Z,6.40
2023-05-11T08:53:57.136Z,7.30
2023-05-11T08:56:26.325Z,6.90
2023-05-11T08:58:56.584Z,7.40
2023-05-11T09:01:24.611Z,7.60
2023-05-11T09:03:52.193Z,7.43
2023-05-11T09:06:20.484Z,7.47
2023-05-11T09:08:48.133Z,6.60
2023-05-11T09:11:15.618Z,5.73
2023-05-11T09:13:43.084Z,6.33
2023-05-11T09:16:23.666Z,6.43
2023-05-11T09:18:53.060Z,5.80
2023-05-11T09:21:20.780Z,6.37
2023-05-11T09:23:51.958Z,6.67
2023-05-11T09:26:24.317Z,5.77
2023-05-11T09:29:02.340Z,6.40
2023-05-11T09:31:32.884Z,7.40
2023-05-11T09:34:14.085Z,6.33
2023-05-11T09:36:42.547Z,6.07
2023-05-11T09:39:15.516Z,6.67
2023-05-11T09:41:39.084Z,5.90
2023-05-11T09:44:08.962Z,6.70
2023-05-11T09:46:36.957Z,6.33
2023-05-11T09:49:04.324Z,7.50
2023-05-11T09:51:32.887Z,7.10
2023-05-11T09:54:02.362Z,7.40
2023-05-11T09:56:39.995Z,7.60
2023-05-11T09:59:07.456Z,6.73
2023-05-11T10:01:36.989Z,7.20
2023-05-11T10:04:13.911Z,6.70
2023-05-11T10:06:35.070Z,6.17
2023-05-11T10:09:04.072Z,6.40
2023-05-11T10:11:31.437Z,6.33
2023-05-11T10:13:59.198Z,6.47
2023-05-11T10:16:26.760Z,6.53
2023-05-11T10:18:54.259Z,5.97
2023-05-11T10:21:22.274Z,5.67
2023-05-11T10:23:49.938Z,6.27
2023-05-11T10:26:17.433Z,6.10
2023-05-11T10:28:44.839Z,6.47
2023-05-11T10:31:12.888Z,6.37
2023-05-11T10:33:40.873Z,7.50
2023-05-11T10:36:08.829Z,7.20
2023-05-11T10:38:36.990Z,6.97
2023-05-11T10:41:05.944Z,8.07
2023-05-11T10:43:42.409Z,7.90
2023-05-11T10:46:30.368Z,8.30
2023-05-11T10:48:58.827Z,7.60
2023-05-11T10:51:34.076Z,6.93
2023-05-11T10:54:20.983Z,7.67
2023-05-11T10:57:06.943Z,7.93
2023-05-11T10:59:41.964Z,6.77
2023-05-11T11:02:09.997Z,6.80
2023-05-11T11:04:44.850Z,6.50
2023-05-11T11:07:13.888Z,6.90
2023-05-11T11:09:51.367Z,5.90
2023-05-11T11:12:19.324Z,5.60
2023-05-11T11:14:57.582Z,7.50
2023-05-11T11:17:27.444Z,5.90
2023-05-11T11:19:55.513Z,6.50
2023-05-11T11:22:38.199Z,6.67
2023-05-11T11:25:07.578Z,5.53
2023-05-11T11:27:42.724Z,6.00
2023-05-11T11:30:20.907Z,5.67
2023-05-11T11:32:49.504Z,4.87
2023-05-11T11:35:35.140Z,5.30
2023-05-11T11:38:03.470Z,4.50
2023-05-11T11:40:47.219Z,6.03
2023-05-11T11:43:18.349Z,4.60
2023-05-11T11:45:53.143Z,4.70
2023-05-11T11:48:24.658Z,4.80
2023-05-11T11:50:53.555Z,5.40
2023-05-11T11:53:45.200Z,5.13
2023-05-11T11:56:17.269Z,4.83
2023-05-11T11:58:46.430Z,5.20
2023-05-11T12:01:14.859Z,4.83
2023-05-11T12:03:43.889Z,4.20
2023-05-11T12:06:12.426Z,5.10
2023-05-11T12:08:40.641Z,4.70
2023-05-11T12:11:09.702Z,4.80
2023-05-11T12:13:37.282Z,4.30
2023-05-11T12:16:18.670Z,4.87
2023-05-11T12:18:53.887Z,4.87
2023-05-11T12:21:21.890Z,4.97
2023-05-11T12:23:54.680Z,4.83
2023-05-11T12:26:23.303Z,4.47
2023-05-11T12:28:51.498Z,4.13
2023-05-11T12:31:19.167Z,4.43
2023-05-11T12:33:47.544Z,4.50
2023-05-11T12:36:16.067Z,4.77
2023-05-11T12:38:44.528Z,4.27
2023-05-11T12:41:11.912Z,4.73
2023-05-11T12:43:39.297Z,5.00
2023-05-11T12:46:06.737Z,4.70
2023-05-11T12:48:35.176Z,4.60
2023-05-11T12:51:03.507Z,4.80
2023-05-11T12:53:32.450Z,4.43
2023-05-11T12:55:59.863Z,5.33
2023-05-11T12:58:27.331Z,4.70
2023-05-11T13:00:55.787Z,4.30
2023-05-11T13:03:27.689Z,4.90
2023-05-11T13:06:09.010Z,4.63
2023-05-11T13:08:38.017Z,4.73
2023-05-11T13:11:25.568Z,5.30
2023-05-11T13:13:53.778Z,4.67
2023-05-11T13:16:28.746Z,4.90
2023-05-11T13:18:59.836Z,4.40
2023-05-11T13:21:29.031Z,4.40
2023-05-11T13:23:56.706Z,4.50
2023-05-11T13:26:25.820Z,4.43
2023-05-11T13:29:08.559Z,4.90
2023-05-11T13:31:22.531Z,4.83
2023-05-11T13:33:53.028Z,4.80
2023-05-11T13:36:20.409Z,4.77
2023-05-11T13:38:47.814Z,4.60
2023-05-11T13:41:15.224Z,4.23
2023-05-11T13:43:42.626Z,4.80
2023-05-11T13:46:10.086Z,5.07
2023-05-11T13:48:37.479Z,4.70
2023-05-11T13:51:04.806Z,4.47
2023-05-11T13:53:32.294Z,4.90
2023-05-11T13:55:59.700Z,5.30
2023-05-11T13:58:27.073Z,4.20
2023-05-11T14:01:07.328Z,4.23
2023-05-11T14:03:23.745Z,4.60
2023-05-11T14:05:51.323Z,4.63
2023-05-11T14:08:18.698Z,5.20
2023-05-11T14:10:46.248Z,4.23
2023-05-11T14:13:13.649Z,4.90
2023-05-11T14:15:41.047Z,5.70
2023-05-11T14:18:08.760Z,5.10
2023-05-11T14:20:37.819Z,6.17
2023-05-11T14:23:05.194Z,6.50
2023-05-11T14:25:32.640Z,6.40
2023-05-11T14:28:00.199Z,6.17
2023-05-11T14:30:27.590Z,7.10
2023-05-11T14:32:55.659Z,6.63
2023-05-11T14:35:23.186Z,7.30
2023-05-11T14:37:50.582Z,7.23
2023-05-11T14:40:18.059Z,7.40
2023-05-11T14:42:45.465Z,7.60
2023-05-11T14:45:12.855Z,9.13
2023-05-11T14:47:40.362Z,8.07
2023-05-11T14:50:08.398Z,9.70
2023-05-11T14:52:35.780Z,10.67
2023-05-11T14:55:03.193Z,11.37
2023-05-11T14:57:30.658Z,11.23
2023-05-11T14:59:59.434Z,11.33
2023-05-11T15:02:27.399Z,11.60
2023-05-11T15:04:55.492Z,11.70
2023-05-11T15:07:22.842Z,13.60
2023-05-11T15:09:50.720Z,11.90
2023-05-11T15:12:18.131Z,13.03
2023-05-11T15:14:45.872Z,12.60
2023-05-11T15:17:13.271Z,12.30
2023-05-11T15:19:40.769Z,11.77
2023-05-11T15:22:08.404Z,11.60
2023-05-11T15:24:35.825Z,11.73
2023-05-11T15:27:03.269Z,12.20
2023-05-11T15:29:30.748Z,12.03
2023-05-11T15:31:58.171Z,11.13
2023-05-11T15:34:25.533Z,10.00
2023-05-11T15:36:52.938Z,9.83
2023-05-11T15:39:20.356Z,10.03
2023-05-11T15:41:47.746Z,8.80
2023-05-11T15:44:15.152Z,9.30
2023-05-11T15:46:42.560Z,7.03
2023-05-11T15:49:09.980Z,7.53
2023-05-11T15:51:37.372Z,8.07
2023-05-11T15:54:04.773Z,7.23
2023-05-11T15:56:32.442Z,8.23
2023-05-11T15:58:59.840Z,8.03
2023-05-11T16:01:27.373Z,8.27
2023-05-11T16:03:56.775Z,8.20
2023-05-11T16:06:24.134Z,9.70
2023-05-11T16:08:52.816Z,8.30
2023-05-11T16:11:21.267Z,8.67
2023-05-11T16:14:02.263Z,8.53
2023-05-11T16:16:30.505Z,9.30
2023-05-11T16:18:58.935Z,9.90
2023-05-11T16:21:28.331Z,8.87
2023-05-11T16:23:56.181Z,9.43
2023-05-11T16:26:23.889Z,9.90
2023-05-11T16:28:51.440Z,10.33
2023-05-11T16:31:18.874Z,10.23
2023-05-11T16:33:46.319Z,10.50
2023-05-11T16:36:13.919Z,10.40
2023-05-11T16:38:41.454Z,10.20
2023-05-11T16:41:09.005Z,11.30
2023-05-11T16:43:38.554Z,10.97
2023-05-11T16:46:07.382Z,10.77
2023-05-11T16:48:35.297Z,9.90
2023-05-11T16:51:03.302Z,10.00
2023-05-11T16:53:31.590Z,10.83
2023-05-11T16:55:59.055Z,12.70
2023-05-11T16:58:26.479Z,13.10
2023-05-11T17:00:53.877Z,11.63
2023-05-11T17:03:21.299Z,12.10
2023-05-11T17:05:49.306Z,14.20
2023-05-11T17:08:17.392Z,11.93
2023-05-11T17:10:46.056Z,11.70
2023-05-11T17:13:13.556Z,13.10
2023-05-11T17:15:41.093Z,11.20
2023-05-11T17:18:10.330Z,13.20
2023-05-11T17:20:38.026Z,13.17
2023-05-11T17:23:05.552Z,12.03
2023-05-11T17:25:33.174Z,13.20
2023-05-11T17:28:00.831Z,12.40
2023-05-11T17:30:39.935Z,11.30
2023-05-11T17:32:57.455Z,12.93
2023-05-11T17:35:25.024Z,13.37
2023-05-11T17:37:52.415Z,13.13
2023-05-11T17:40:20.034Z,13.23
2023-05-11T17:42:47.873Z,12.20
2023-05-11T17:45:16.284Z,14.47
2023-05-11T17:47:43.746Z,14.00
2023-05-11T17:50:11.293Z,15.17
2023-05-11T17:52:38.694Z,13.40
2023-05-11T17:55:06.609Z,15.40
2023-05-11T17:57:33.997Z,14.27
2023-05-11T18:00:01.417Z,14.80
2023-05-11T18:02:28.937Z,13.40
2023-05-11T18:04:56.590Z,13.20
2023-05-11T18:07:24.044Z,14.60
2023-05-11T18:09:51.448Z,13.07
2023-05-11T18:12:19.811Z,14.90
2023-05-11T18:14:47.240Z,16.90
2023-05-11T18:17:14.814Z,15.60
2023-05-11T18:19:42.709Z,14.90
2023-05-11T18:22:10.455Z,14.30
2023-05-11T18:24:37.808Z,14.43
2023-05-11T18:27:05.263Z,16.87
2023-05-11T18:29:32.755Z,15.20
2023-05-11T18:32:00.244Z,16.30
2023-05-11T18:34:27.752Z,15.27
2023-05-11T18:36:55.219Z,15.53
2023-05-11T18:39:22.602Z,14.80
2023-05-11T18:41:50.359Z,14.30
2023-05-11T18:44:19.071Z,13.93
2023-05-11T18:46:46.518Z,14.37
2023-05-11T18:49:13.988Z,15.17
2023-05-11T18:51:41.469Z,15.77
2023-05-11T18:54:08.875Z,15.10
2023-05-11T18:56:36.352Z,13.60
2023-05-11T18:59:03.821Z,12.50
2023-05-11T19:01:46.434Z,13.57
2023-05-11T19:04:00.939Z,12.63
2023-05-11T19:06:28.324Z,12.97
2023-05-11T19:08:56.185Z,12.00
2023-05-11T19:11:23.641Z,12.23
2023-05-11T19:13:51.107Z,11.80
2023-05-11T19:16:20.414Z,10.77
2023-05-11T19:18:47.836Z,11.67
2023-05-11T19:21:15.343Z,11.53
2023-05-11T19:23:42.731Z,10.60
2023-05-11T19:26:10.129Z,12.53
2023-05-11T19:28:37.540Z,10.77
2023-05-11T19:31:06.067Z,9.87
2023-05-11T19:33:33.542Z,8.83
2023-05-11T19:36:00.880Z,10.43
2023-05-11T19:38:28.310Z,9.57
2023-05-11T19:40:55.984Z,9.03
2023-05-11T19:43:24.206Z,10.57
2023-05-11T19:45:51.629Z,11.13
2023-05-11T19:48:19.069Z,10.20
2023-05-11T19:50:47.800Z,9.53
2023-05-11T19:53:15.594Z,11.37
2023-05-11T19:55:44.886Z,10.03
2023-05-11T19:58:12.739Z,9.30
2023-05-11T20:00:41.180Z,10.10
2023-05-11T20:03:08.760Z,10.70
2023-05-11T20:05:36.519Z,10.00
2023-05-11T20:08:05.552Z,10.37
2023-05-11T20:10:33.467Z,9.20
2023-05-11T20:13:02.497Z,11.27
2023-05-11T20:15:31.014Z,10.23
2023-05-11T20:17:58.808Z,10.03
2023-05-11T20:20:26.167Z,10.63
2023-05-11T20:22:53.573Z,10.37
2023-05-11T20:25:21.390Z,10.67
2023-05-11T20:27:48.784Z,11.63
2023-05-11T20:30:16.297Z,9.80
2023-05-11T20:35:13.263Z,10.67
2023-05-11T20:37:40.650Z,10.10
2023-05-11T20:40:09.579Z,11.40
2023-05-11T20:42:38.627Z,12.20
2023-05-11T20:45:07.647Z,10.97
2023-05-11T20:47:35.129Z,10.50
2023-05-11T20:50:02.720Z,10.27
2023-05-11T20:52:30.378Z,10.90
2023-05-11T20:54:57.777Z,11.10
2023-05-11T20:57:25.214Z,11.63
2023-05-11T21:02:21.686Z,11.93
2023-05-11T21:04:49.216Z,10.03
2023-05-11T21:07:16.594Z,10.47
2023-05-11T21:09:44.599Z,12.40
2023-05-11T21:12:12.057Z,11.43
2023-05-11T21:14:39.735Z,11.80
2023-05-11T21:17:07.199Z,11.47
2023-05-11T21:19:34.647Z,10.80
2023-05-11T21:22:02.042Z,9.93
2023-05-11T21:24:29.605Z,11.30
2023-05-11T21:26:56.994Z,11.23
2023-05-11T21:29:24.578Z,10.80
2023-05-11T21:31:52.819Z,10.73
2023-05-11T21:34:20.235Z,11.17
2023-05-11T21:36:47.606Z,11.57
2023-05-11T21:39:14.933Z,11.20
2023-05-11T21:41:42.332Z,12.37
2023-05-11T21:44:09.751Z,12.37
2023-05-11T21:46:37.176Z,11.87
2023-05-11T21:49:04.543Z,11.57
2023-05-11T21:51:32.853Z,13.30
2023-05-11T21:54:00.921Z,12.50
2023-05-11T21:56:28.300Z,12.83
2023-05-11T21:58:55.623Z,10.80
2023-05-11T22:01:23.027Z,12.63
2023-05-11T22:03:50.747Z,13.50
2023-05-11T22:06:18.261Z,12.97
2023-05-11T22:08:46.131Z,13.10
2023-05-11T22:11:13.596Z,12.30
2023-05-11T22:13:41.094Z,11.50
2023-05-11T22:16:08.506Z,13.00
2023-05-11T22:18:35.952Z,12.07
2023-05-11T22:21:03.355Z,12.23
2023-05-11T22:23:31.638Z,11.43
2023-05-11T22:25:59.045Z,11.67
2023-05-11T22:28:26.438Z,11.40
2023-05-11T22:30:53.810Z,12.50
2023-05-11T22:33:21.215Z,10.57
2023-05-11T22:35:48.633Z,11.50
2023-05-11T22:38:16.084Z,10.80
2023-05-11T22:40:43.485Z,11.57
2023-05-11T22:43:10.903Z,12.80
2023-05-11T22:45:38.313Z,10.47
2023-05-11T22:48:06.453Z,12.10
2023-05-11T22:50:33.821Z,11.50
2023-05-11T22:53:01.202Z,11.87
2023-05-11T22:55:28.802Z,13.10
2023-05-11T22:57:56.244Z,11.20
2023-05-11T23:00:23.648Z,12.40
2023-05-11T23:02:51.425Z,11.50
2023-05-11T23:05:18.817Z,12.23
2023-05-11T23:07:46.226Z,12.07
2023-05-11T23:10:13.609Z,12.33
2023-05-11T23:12:41.002Z,12.30
2023-05-11T23:15:09.546Z,12.27
2023-05-11T23:17:37.013Z,14.07
2023-05-11T23:20:04.655Z,16.90
2023-05-11T23:22:32.437Z,13.87
2023-05-11T23:25:00.401Z,13.93
2023-05-11T23:27:28.388Z,15.90
2023-05-11T23:29:55.786Z,14.33
2023-05-11T23:32:23.196Z,14.00
2023-05-11T23:34:50.572Z,15.13
2023-05-11T23:37:17.910Z,13.93
2023-05-11T23:39:45.303Z,15.07
2023-05-11T23:42:12.720Z,14.53
2023-05-11T23:44:40.584Z,13.03
2023-05-11T23:47:08.045Z,13.23
2023-05-11T23:49:35.861Z,12.50
2023-05-11T23:52:03.355Z,12.60
2023-05-11T23:54:30.731Z,10.80
2023-05-11T23:56:59.498Z,10.40
2023-05-11T23:59:26.920Z,10.37
